Detroit, Michigan
Current Conditions -  °F | °C
As of 7:00 AM on Thursday 27 Nov 2014 (Local Time) from CYQG Reporting Station
Overcast Overcast  
Wind Chill: 20°   Ceiling: 5700
Heat Index: 28°   Visibility: 15mi
Dew Point: 21°   Wind: 9mph
Humidity: 74%   Direction: 330°NNW
Pressure: 30.12"   Gusts: NA
Location:  42.33°N, 83.05°W
Report Text: CYQG 271200Z 33008KT 15SM OVC057 M02/M06 A3012 RMK CU8 SLP207
Loading
Personal Weather Stations






























Interactive Weather Map New forecast layout! Learn more

10-Day Weather Forecast

Advertisements
Track Severe Weather on mobile